createdAt,value
2019-03-20T00:03:24.224Z,85.37
2019-03-20T00:05:50.455Z,87.33
2019-03-20T00:08:16.720Z,86.14
2019-03-20T00:10:42.954Z,85.47
2019-03-20T00:13:09.224Z,84.67
2019-03-20T00:15:35.456Z,85.56
2019-03-20T00:18:21.454Z,85.31
2019-03-20T00:20:47.684Z,85.27
2019-03-20T00:23:13.917Z,85.00
2019-03-20T00:28:34.245Z,85.90
2019-03-20T00:31:00.478Z,85.51
2019-03-20T00:33:26.709Z,85.60
2019-03-20T00:35:52.971Z,85.29
2019-03-20T00:38:19.211Z,86.12
2019-03-20T00:40:45.467Z,86.70
2019-03-20T00:43:11.706Z,86.69
2019-03-20T00:45:37.953Z,86.73
2019-03-20T00:48:04.285Z,86.67
2019-03-20T00:50:30.540Z,86.14
2019-03-20T00:52:56.772Z,86.53
2019-03-20T00:55:23.022Z,85.72
2019-03-20T00:57:49.260Z,85.41
2019-03-20T01:03:14.961Z,85.19
2019-03-20T01:05:41.215Z,85.47
2019-03-20T01:08:07.475Z,85.26
2019-03-20T01:10:33.724Z,85.49
2019-03-20T01:12:59.966Z,84.74
2019-03-20T01:15:26.214Z,84.59
2019-03-20T01:17:52.457Z,84.57
2019-03-20T01:21:00.014Z,84.31
2019-03-20T01:23:26.256Z,84.53
2019-03-20T01:25:52.511Z,84.85
2019-03-20T01:28:18.750Z,85.02
2019-03-20T01:30:45.001Z,85.55
2019-03-20T01:36:24.820Z,86.54
2019-03-20T01:38:51.059Z,86.35
2019-03-20T01:41:17.322Z,86.71
2019-03-20T01:43:43.565Z,86.31
2019-03-20T01:46:09.813Z,86.64
2019-03-20T01:48:36.082Z,87.09
2019-03-20T01:51:22.082Z,86.27
2019-03-20T01:53:48.430Z,85.11
2019-03-20T01:56:14.667Z,84.83
2019-03-20T01:58:40.910Z,84.83
2019-03-20T02:01:07.180Z,85.16
2019-03-20T02:03:33.421Z,85.29
2019-03-20T02:05:59.677Z,85.39
2019-03-20T02:08:25.924Z,85.35
2019-03-20T02:10:52.169Z,85.63
2019-03-20T02:13:18.415Z,85.87
2019-03-20T02:15:44.648Z,85.54
2019-03-20T02:18:10.898Z,85.75
2019-03-20T02:20:37.140Z,84.82
2019-03-20T02:23:03.519Z,85.28
2019-03-20T02:25:32.208Z,84.74
2019-03-20T02:27:57.918Z,84.87
2019-03-20T02:30:24.253Z,85.06
2019-03-20T02:32:50.531Z,85.22
2019-03-20T02:35:16.737Z,85.64
2019-03-20T02:37:43.091Z,86.25
2019-03-20T02:40:50.645Z,85.84
2019-03-20T02:43:16.883Z,85.35
2019-03-20T02:45:43.115Z,85.58
2019-03-20T02:48:09.366Z,86.42
2019-03-20T02:50:35.622Z,87.04
2019-03-20T02:53:01.883Z,86.95
2019-03-20T02:55:28.152Z,87.74
2019-03-20T02:57:54.404Z,87.31
2019-03-20T03:00:20.758Z,87.34
2019-03-20T03:02:47.022Z,86.92
2019-03-20T03:08:26.859Z,86.72
2019-03-20T03:10:55.623Z,86.96
2019-03-20T03:13:21.264Z,87.20
2019-03-20T03:15:47.504Z,87.35
2019-03-20T03:18:13.753Z,87.70
2019-03-20T03:20:39.993Z,89.29
2019-03-20T03:23:06.246Z,89.64
2019-03-20T03:25:32.491Z,89.67
2019-03-20T03:27:58.727Z,90.27
2019-03-20T03:30:24.980Z,90.12
2019-03-20T03:32:51.294Z,91.87
2019-03-20T03:35:19.813Z,92.08
2019-03-20T03:37:45.845Z,93.53
2019-03-20T03:40:33.648Z,95.05
2019-03-20T03:42:59.896Z,94.98
2019-03-20T03:45:26.139Z,95.29
2019-03-20T03:47:52.406Z,95.64
2019-03-20T03:50:18.677Z,96.66
2019-03-20T03:52:44.910Z,97.40
2019-03-20T03:55:32.419Z,98.08
2019-03-20T03:57:58.758Z,98.58
2019-03-20T04:00:25.020Z,98.97
2019-03-20T04:02:51.287Z,99.23
2019-03-20T04:05:17.529Z,99.40
2019-03-20T04:07:43.787Z,99.55
2019-03-20T04:10:51.361Z,99.75
2019-03-20T04:13:17.605Z,99.95
2019-03-20T04:15:43.868Z,100.00
2019-03-20T04:18:10.107Z,100.00
2019-03-20T04:20:36.368Z,100.00
2019-03-20T04:23:02.620Z,100.00
2019-03-20T04:25:28.876Z,100.00
2019-03-20T04:30:42.763Z,100.00
2019-03-20T04:33:08.992Z,100.00
2019-03-20T04:35:35.257Z,100.00
2019-03-20T04:38:01.510Z,99.93
2019-03-20T04:40:27.843Z,99.58
2019-03-20T04:42:54.116Z,99.16
2019-03-20T04:45:20.359Z,98.67
2019-03-20T04:47:46.610Z,98.82
2019-03-20T04:53:06.806Z,98.74
2019-03-20T04:55:33.085Z,98.76
2019-03-20T04:57:59.317Z,98.83
2019-03-20T05:00:25.576Z,98.67
2019-03-20T05:02:51.838Z,98.98
2019-03-20T05:05:18.100Z,99.33
2019-03-20T05:07:44.361Z,99.87
2019-03-20T05:13:24.137Z,100.00
2019-03-20T05:15:50.390Z,100.00
2019-03-20T05:18:16.676Z,100.00
2019-03-20T05:20:43.292Z,100.00
2019-03-20T05:23:09.546Z,100.00
2019-03-20T05:25:35.783Z,100.00
2019-03-20T05:28:02.062Z,100.00
2019-03-20T05:30:29.417Z,100.00
2019-03-20T05:32:55.688Z,100.00
2019-03-20T05:35:21.922Z,100.00
2019-03-20T05:37:48.179Z,100.00
2019-03-20T05:40:35.985Z,100.00
2019-03-20T05:43:02.267Z,99.75
2019-03-20T05:45:28.499Z,99.56
2019-03-20T05:47:54.744Z,99.49
2019-03-20T05:50:20.985Z,99.24
2019-03-20T05:52:47.243Z,99.19
2019-03-20T05:55:13.581Z,99.15
2019-03-20T05:57:39.823Z,98.95
2019-03-20T06:00:45.595Z,98.67
2019-03-20T06:03:11.841Z,98.66
2019-03-20T06:05:38.075Z,98.70
2019-03-20T06:08:04.331Z,98.43
2019-03-20T06:10:30.564Z,98.45
2019-03-20T06:12:56.811Z,98.60
2019-03-20T06:15:24.629Z,98.31
2019-03-20T06:17:51.196Z,98.02
2019-03-20T06:20:17.430Z,97.99
2019-03-20T06:22:43.661Z,98.15
2019-03-20T06:25:51.658Z,97.91
2019-03-20T06:28:17.969Z,97.98
2019-03-20T06:30:44.200Z,97.46
2019-03-20T06:33:10.446Z,97.37
2019-03-20T06:35:36.688Z,97.00
2019-03-20T06:38:03.021Z,96.65
2019-03-20T06:40:29.272Z,96.35
2019-03-20T06:42:55.567Z,96.36
2019-03-20T06:45:21.866Z,95.79
2019-03-20T06:47:48.088Z,95.67
2019-03-20T06:50:34.073Z,95.81
2019-03-20T06:53:00.308Z,95.52
2019-03-20T06:55:26.545Z,95.35
2019-03-20T06:57:52.777Z,95.54
2019-03-20T07:00:58.536Z,95.18
2019-03-20T07:12:26.732Z,96.44
2019-03-20T07:14:52.964Z,96.39
2019-03-20T07:17:19.229Z,96.46
2019-03-20T07:19:45.461Z,96.21
2019-03-20T07:22:11.703Z,96.15
2019-03-20T07:24:37.929Z,96.53
2019-03-20T07:27:04.175Z,96.42
2019-03-20T07:29:30.455Z,96.66
2019-03-20T07:31:56.646Z,97.02
2019-03-20T07:34:22.871Z,96.76
2019-03-20T07:36:49.106Z,96.38
2019-03-20T07:39:15.335Z,96.15
2019-03-20T07:41:41.578Z,95.93
2019-03-20T07:44:07.807Z,96.09
2019-03-20T07:46:34.091Z,95.88
2019-03-20T07:49:00.325Z,95.77
2019-03-20T07:51:26.566Z,95.81
2019-03-20T07:53:52.809Z,95.80
2019-03-20T07:56:19.031Z,95.59
2019-03-20T07:58:45.280Z,95.49
2019-03-20T08:01:11.513Z,95.29
2019-03-20T08:03:37.782Z,95.40
2019-03-20T08:06:03.988Z,95.08
2019-03-20T08:08:30.231Z,94.94
2019-03-20T08:10:56.607Z,95.06
2019-03-20T08:13:22.858Z,94.60
2019-03-20T08:15:49.077Z,94.36
2019-03-20T08:18:15.320Z,94.02
2019-03-20T08:20:41.559Z,93.71
2019-03-20T08:23:07.811Z,92.93
2019-03-20T08:25:34.039Z,92.00
2019-03-20T08:28:00.277Z,91.89
2019-03-20T08:30:26.528Z,91.57
2019-03-20T08:32:52.771Z,90.94
2019-03-20T08:35:18.997Z,90.88
2019-03-20T08:37:45.232Z,90.78
2019-03-20T08:40:52.796Z,90.86
2019-03-20T08:43:19.042Z,90.61
2019-03-20T08:45:45.304Z,90.28
2019-03-20T08:48:11.558Z,90.47
2019-03-20T08:50:37.792Z,90.33
2019-03-20T08:53:04.017Z,90.42
2019-03-20T08:55:30.260Z,90.32
2019-03-20T08:57:56.589Z,90.57
2019-03-20T09:01:04.145Z,90.45
2019-03-20T09:03:30.369Z,90.28
2019-03-20T09:05:56.620Z,89.97
2019-03-20T09:08:29.453Z,89.59
2019-03-20T09:10:51.003Z,89.36
2019-03-20T09:13:17.227Z,89.29
2019-03-20T09:15:43.464Z,89.34
2019-03-20T09:18:09.714Z,89.42
2019-03-20T09:20:35.962Z,88.66
2019-03-20T09:23:02.189Z,88.88
2019-03-20T09:25:28.435Z,88.57
2019-03-20T09:27:54.666Z,88.05
2019-03-20T09:31:02.215Z,87.58
2019-03-20T09:33:28.447Z,87.63
2019-03-20T09:35:54.701Z,87.53
2019-03-20T09:38:20.951Z,87.64
2019-03-20T09:40:47.198Z,87.20
2019-03-20T09:43:13.445Z,87.50
2019-03-20T09:45:39.739Z,87.10
2019-03-20T09:48:05.975Z,87.00
2019-03-20T09:50:32.220Z,86.77
2019-03-20T09:52:58.456Z,86.44
2019-03-20T09:55:24.694Z,86.03
2019-03-20T09:57:50.932Z,85.96
2019-03-20T10:00:38.728Z,85.97
2019-03-20T10:03:04.969Z,85.11
2019-03-20T10:05:31.232Z,84.97
2019-03-20T10:07:57.464Z,84.37
2019-03-20T10:10:43.458Z,84.83
2019-03-20T10:13:09.709Z,84.34
2019-03-20T10:15:35.954Z,83.75
2019-03-20T10:18:02.201Z,83.58
2019-03-20T10:20:28.442Z,83.46
2019-03-20T10:22:54.689Z,83.51
2019-03-20T10:25:20.923Z,83.25
2019-03-20T10:27:47.172Z,83.88
2019-03-20T10:30:33.161Z,84.35
2019-03-20T10:32:59.416Z,84.87
2019-03-20T10:35:25.647Z,84.93
2019-03-20T10:37:51.912Z,85.19
2019-03-20T10:40:37.907Z,85.15
2019-03-20T10:43:04.172Z,85.12
2019-03-20T10:45:30.403Z,85.67
2019-03-20T10:47:56.682Z,84.42
2019-03-20T10:53:36.969Z,83.35
2019-03-20T10:56:03.199Z,83.61
2019-03-20T10:58:29.460Z,83.28
2019-03-20T11:00:55.685Z,83.09
2019-03-20T11:03:21.940Z,82.84
2019-03-20T11:05:48.174Z,82.01
2019-03-20T11:08:14.417Z,83.19
2019-03-20T11:10:40.657Z,82.71
2019-03-20T11:13:06.902Z,82.08
2019-03-20T11:15:33.142Z,81.32
2019-03-20T11:17:59.395Z,81.59
2019-03-20T11:20:25.643Z,81.09
2019-03-20T11:22:51.887Z,80.56
2019-03-20T11:25:37.897Z,80.34
2019-03-20T11:28:04.151Z,80.34
2019-03-20T11:31:11.700Z,80.10
2019-03-20T11:33:37.948Z,80.58
2019-03-20T11:36:04.193Z,80.71
2019-03-20T11:38:30.433Z,80.19
2019-03-20T11:40:56.674Z,80.25
2019-03-20T11:43:22.919Z,80.74
2019-03-20T11:45:49.207Z,80.45
2019-03-20T11:48:15.456Z,80.58
2019-03-20T11:53:55.223Z,79.74
2019-03-20T11:56:21.469Z,79.51
2019-03-20T11:58:47.748Z,78.57
2019-03-20T12:01:13.956Z,78.18
2019-03-20T12:03:40.197Z,78.53
2019-03-20T12:06:06.455Z,78.69
2019-03-20T12:08:32.682Z,78.34
2019-03-20T12:10:58.936Z,78.89
2019-03-20T12:13:25.246Z,78.04
2019-03-20T12:15:51.536Z,76.77
2019-03-20T12:18:18.063Z,74.28
2019-03-20T12:20:44.367Z,76.72
2019-03-20T12:23:10.609Z,75.77
2019-03-20T12:26:18.167Z,77.37
2019-03-20T12:28:44.406Z,78.19
2019-03-20T12:31:10.753Z,77.71
2019-03-20T12:33:37.000Z,77.02
2019-03-20T12:36:03.331Z,76.27
2019-03-20T12:38:29.566Z,75.09
2019-03-20T12:40:55.820Z,77.33
2019-03-20T12:43:22.054Z,77.84
2019-03-20T12:45:48.305Z,76.01
2019-03-20T12:51:15.057Z,78.71
2019-03-20T12:53:41.287Z,78.93
2019-03-20T12:56:07.542Z,78.66
2019-03-20T12:58:33.775Z,77.87
2019-03-20T13:01:00.028Z,77.77
2019-03-20T13:03:26.262Z,78.10
2019-03-20T13:05:52.506Z,78.34
2019-03-20T13:08:18.773Z,78.34
2019-03-20T13:10:45.050Z,79.58
2019-03-20T13:13:11.364Z,79.49
2019-03-20T13:15:37.640Z,81.28
2019-03-20T13:18:03.898Z,81.70
2019-03-20T13:20:30.130Z,82.42
2019-03-20T13:23:36.161Z,82.83
2019-03-20T13:26:02.508Z,83.34
2019-03-20T13:28:28.774Z,83.69
2019-03-20T13:31:16.582Z,83.95
2019-03-20T13:33:42.839Z,84.09
2019-03-20T13:36:09.078Z,84.44
2019-03-20T13:38:35.333Z,84.96
2019-03-20T13:41:01.564Z,85.31
2019-03-20T13:43:27.814Z,85.27
2019-03-20T13:45:54.056Z,85.61
2019-03-20T13:48:20.300Z,86.20
2019-03-20T13:50:46.532Z,86.26
2019-03-20T13:53:15.229Z,87.16
2019-03-20T13:55:40.914Z,86.93
2019-03-20T13:58:07.163Z,86.63
2019-03-20T14:03:40.740Z,86.62
2019-03-20T14:06:06.974Z,87.28
2019-03-20T14:08:33.216Z,87.83
2019-03-20T14:10:59.450Z,87.52
2019-03-20T14:13:25.692Z,87.85
2019-03-20T14:15:51.923Z,88.40
2019-03-20T14:18:18.173Z,87.83
2019-03-20T14:20:44.408Z,88.57
2019-03-20T14:23:10.646Z,88.51
2019-03-20T14:25:36.888Z,88.37
2019-03-20T14:28:03.103Z,89.12
2019-03-20T14:33:23.231Z,89.47
2019-03-20T14:35:49.467Z,89.74
2019-03-20T14:38:15.700Z,90.59
2019-03-20T14:40:42.287Z,90.36
2019-03-20T14:43:08.587Z,90.93
2019-03-20T14:45:34.960Z,91.41
2019-03-20T14:48:01.212Z,90.85
2019-03-20T14:51:08.763Z,92.09
2019-03-20T14:53:34.996Z,91.84
2019-03-20T14:56:01.241Z,92.60
2019-03-20T14:58:27.477Z,92.62
2019-03-20T15:00:53.723Z,92.56
2019-03-20T15:03:19.960Z,92.57
2019-03-20T15:05:46.214Z,92.70
2019-03-20T15:08:12.441Z,92.88
2019-03-20T15:10:45.664Z,93.89
2019-03-20T15:13:06.819Z,93.42
2019-03-20T15:16:14.378Z,93.32
2019-03-20T15:18:40.610Z,93.06
2019-03-20T15:21:06.856Z,93.13
2019-03-20T15:23:33.082Z,93.46
2019-03-20T15:25:59.335Z,94.02
2019-03-20T15:28:25.587Z,94.58
2019-03-20T15:30:51.840Z,93.53
2019-03-20T15:33:18.070Z,93.74
2019-03-20T15:35:44.313Z,94.76
2019-03-20T15:38:10.536Z,95.10
2019-03-20T15:40:36.782Z,94.98
2019-03-20T15:46:17.132Z,94.96
2019-03-20T15:48:43.450Z,95.39
2019-03-20T15:51:09.704Z,95.12
2019-03-20T15:53:35.937Z,95.14
2019-03-20T15:56:02.185Z,95.30
2019-03-20T15:58:28.420Z,95.27
2019-03-20T16:00:54.663Z,95.18
2019-03-20T16:06:34.574Z,95.31
2019-03-20T16:09:00.809Z,95.50
2019-03-20T16:11:27.071Z,95.66
2019-03-20T16:13:53.323Z,96.01
2019-03-20T16:16:19.547Z,96.30
2019-03-20T16:18:45.792Z,96.33
2019-03-20T16:21:12.024Z,96.50
2019-03-20T16:23:38.291Z,96.65
2019-03-20T16:26:04.520Z,96.65
2019-03-20T16:28:30.845Z,96.80
2019-03-20T16:30:57.075Z,96.93
2019-03-20T16:33:30.390Z,96.87
2019-03-20T16:35:56.623Z,96.79
2019-03-20T16:38:22.866Z,97.26
2019-03-20T16:40:49.096Z,97.33
2019-03-20T16:43:15.341Z,97.16
2019-03-20T16:45:41.579Z,96.91
2019-03-20T16:48:07.872Z,96.98
2019-03-20T16:50:34.103Z,97.09
2019-03-20T16:53:00.455Z,97.12
2019-03-20T16:55:26.703Z,97.31
2019-03-20T16:57:52.942Z,97.37
2019-03-20T17:03:32.853Z,97.83
2019-03-20T17:05:59.090Z,98.06
2019-03-20T17:08:25.335Z,98.12
2019-03-20T17:10:51.687Z,98.30
2019-03-20T17:13:17.935Z,98.45
2019-03-20T17:15:44.266Z,98.83
2019-03-20T17:18:10.493Z,99.04
2019-03-20T17:20:36.734Z,99.21
2019-03-20T17:23:44.268Z,99.44
2019-03-20T17:26:10.528Z,99.50
2019-03-20T17:28:36.760Z,99.67
2019-03-20T17:31:03.004Z,99.84
2019-03-20T17:33:29.236Z,99.92
2019-03-20T17:35:55.477Z,99.99
2019-03-20T17:38:21.707Z,99.90
2019-03-20T17:40:47.944Z,99.87
2019-03-20T17:43:14.173Z,99.93
2019-03-20T17:48:34.579Z,99.92
2019-03-20T17:51:00.827Z,99.97
2019-03-20T17:53:27.068Z,100.00
2019-03-20T17:55:53.329Z,100.00
2019-03-20T17:58:19.565Z,100.00
2019-03-20T18:03:23.449Z,100.00
2019-03-20T18:05:49.694Z,100.00
2019-03-20T18:08:15.922Z,100.00
2019-03-20T18:10:42.180Z,100.00
2019-03-20T18:13:08.411Z,100.00
2019-03-20T18:15:34.767Z,100.00
2019-03-20T18:18:01.005Z,100.00
2019-03-20T18:20:27.252Z,100.00
2019-03-20T18:22:53.490Z,100.00
2019-03-20T18:25:19.724Z,100.00
2019-03-20T18:27:45.976Z,100.00
2019-03-20T18:33:13.283Z,100.00
2019-03-20T18:35:39.551Z,100.00
2019-03-20T18:41:13.541Z,100.00
2019-03-20T18:43:39.771Z,100.00
2019-03-20T18:46:06.015Z,100.00
2019-03-20T18:48:32.255Z,100.00
2019-03-20T18:50:58.503Z,100.00
2019-03-20T18:53:24.754Z,100.00
2019-03-20T18:55:50.989Z,100.00
2019-03-20T18:58:17.230Z,100.00
2019-03-20T19:00:43.461Z,100.00
2019-03-20T19:06:32.491Z,100.00
2019-03-20T19:08:58.735Z,100.00
2019-03-20T19:11:25.167Z,100.00
2019-03-20T19:13:51.416Z,100.00
2019-03-20T19:16:17.642Z,100.00
2019-03-20T19:18:43.890Z,100.00
2019-03-20T19:21:10.115Z,99.68
2019-03-20T19:23:36.360Z,99.27
2019-03-20T19:29:09.954Z,98.40
2019-03-20T19:31:36.181Z,97.89
2019-03-20T19:34:02.432Z,98.04
2019-03-20T19:36:28.675Z,96.93
2019-03-20T19:38:54.922Z,97.17
2019-03-20T19:41:21.163Z,97.03
2019-03-20T19:43:47.402Z,97.54
2019-03-20T19:46:13.640Z,97.38
2019-03-20T19:48:39.895Z,97.04
2019-03-20T19:51:06.181Z,96.63
2019-03-20T19:53:32.419Z,96.71
2019-03-20T19:55:58.648Z,96.87
2019-03-20T19:58:24.892Z,97.13
2019-03-20T20:00:51.130Z,97.64
2019-03-20T20:03:17.360Z,98.16
2019-03-20T20:05:43.608Z,98.80
2019-03-20T20:08:09.845Z,98.99
2019-03-20T20:10:36.090Z,98.97
2019-03-20T20:13:02.325Z,98.92
2019-03-20T20:15:48.344Z,99.12
2019-03-20T20:18:14.602Z,99.49
2019-03-20T20:20:40.893Z,99.68
2019-03-20T20:23:07.121Z,99.85
2019-03-20T20:25:33.346Z,99.93
2019-03-20T20:27:59.588Z,99.99
2019-03-20T20:30:25.834Z,100.00
2019-03-20T20:32:52.064Z,100.00
2019-03-20T20:35:18.318Z,100.00
2019-03-20T20:37:45.250Z,100.00
2019-03-20T20:40:31.240Z,100.00
2019-03-20T20:42:57.487Z,100.00
2019-03-20T20:45:23.742Z,100.00
2019-03-20T20:47:49.970Z,100.00
2019-03-20T20:53:10.444Z,100.00
2019-03-20T20:55:36.689Z,100.00
2019-03-20T20:58:02.927Z,100.00
2019-03-20T21:00:29.174Z,100.00
2019-03-20T21:02:55.402Z,100.00
2019-03-20T21:05:21.660Z,100.00
2019-03-20T21:07:47.893Z,100.00
2019-03-20T21:10:55.437Z,100.00
2019-03-20T21:13:21.672Z,100.00
2019-03-20T21:15:47.921Z,99.97
2019-03-20T21:18:53.655Z,99.90
2019-03-20T21:21:19.898Z,99.96
2019-03-20T21:24:26.438Z,100.00
2019-03-20T21:27:33.984Z,99.86
2019-03-20T21:33:46.087Z,99.67
2019-03-20T21:36:51.840Z,99.61
2019-03-20T21:39:18.079Z,99.62
2019-03-20T21:42:23.825Z,99.60
2019-03-20T21:45:29.556Z,99.61
2019-03-20T21:47:55.799Z,99.54
2019-03-20T21:51:01.550Z,99.25
2019-03-20T21:54:09.112Z,99.09
2019-03-20T21:57:14.836Z,99.12
2019-03-20T22:00:02.649Z,98.72
2019-03-20T22:08:43.339Z,98.73
2019-03-20T22:11:31.128Z,99.13
2019-03-20T22:14:38.658Z,99.08
2019-03-20T22:17:50.559Z,99.24
2019-03-20T22:20:53.853Z,99.64
2019-03-20T22:23:59.623Z,99.88
2019-03-20T22:27:07.160Z,100.00
2019-03-20T22:29:33.393Z,100.00
2019-03-20T22:32:39.140Z,100.00
2019-03-20T22:38:40.662Z,100.00
2019-03-20T22:41:46.425Z,100.00
2019-03-20T22:44:12.680Z,100.00
2019-03-20T22:47:18.424Z,100.00
2019-03-20T22:50:24.213Z,100.00
2019-03-20T22:53:31.753Z,100.00
2019-03-20T22:56:39.302Z,100.00
2019-03-20T22:59:05.539Z,100.00
2019-03-20T23:02:13.071Z,100.00
2019-03-20T23:05:20.630Z,100.00
2019-03-20T23:07:46.861Z,100.00
2019-03-20T23:10:54.407Z,100.00
2019-03-20T23:13:20.647Z,100.00
2019-03-20T23:16:28.207Z,100.00
2019-03-20T23:18:54.455Z,100.00
2019-03-20T23:21:20.689Z,100.00
2019-03-20T23:23:46.919Z,100.00
2019-03-20T23:26:13.181Z,100.00
2019-03-20T23:29:20.728Z,100.00
2019-03-20T23:31:46.990Z,100.00
2019-03-20T23:34:13.233Z,100.00
2019-03-20T23:36:39.467Z,100.00
2019-03-20T23:39:47.008Z,100.00
2019-03-20T23:42:13.242Z,100.00
2019-03-20T23:44:39.498Z,100.00
2019-03-20T23:47:05.744Z,100.00
2019-03-20T23:49:31.975Z,100.00
2019-03-20T23:51:58.270Z,100.00
2019-03-20T23:57:38.464Z,100.00
